Time;durP1;ratioP1;P1;durP2;ratioP2;P2;SDS_P1;SDS_P2;PMS_P1;PMS_P2;Temp;Humidity;BMP_temperature;BMP_pressure;BME280_temperature;BME280_humidity;BME280_pressure;Samples;Min_cycle;Max_cycle;Signal;HPM_P1;HPM_P2
2022/12/06 00:01:36;;;;;;;14.45;7.50;;;;;;;;;;4962164;28;20049;-60
2022/12/06 00:04:03;;;;;;;14.13;6.95;;;;;;;;;;4959604;28;20042;-61
2022/12/06 00:06:30;;;;;;;16.83;7.18;;;;;;;;;;4960857;28;20508;-73
2022/12/06 06:26:40;;;;;;;24.42;11.73;;;;;;;;;;5318960;23;20086;-60
2022/12/06 06:29:06;;;;;;;22.15;10.82;;;;;;;;;;4955840;28;20039;-60
2022/12/06 06:31:32;;;;;;;21.80;10.30;;;;;;;;;;4973764;28;20046;-60
2022/12/06 06:33:58;;;;;;;25.50;10.55;;;;;;;;;;4973834;28;20030;-68
2022/12/06 06:36:24;;;;;;;21.50;10.77;;;;;;;;;;4973456;28;20031;-60
2022/12/06 06:38:50;;;;;;;20.40;11.00;;;;;;;;;;4973793;28;20596;-59
2022/12/06 06:41:16;;;;;;;20.13;10.13;;;;;;;;;;4973863;28;20037;-58
2022/12/06 06:43:42;;;;;;;21.23;10.68;;;;;;;;;;4973729;28;20526;-61
2022/12/06 06:46:09;;;;;;;19.17;10.30;;;;;;;;;;4969842;28;20031;-57
2022/12/06 06:48:37;;;;;;;19.08;10.32;;;;;;;;;;4963048;28;20031;-70
2022/12/06 06:51:07;;;;;;;22.00;11.05;;;;;;;;;;4959086;28;20034;-69
2022/12/06 06:53:33;;;;;;;19.63;9.68;;;;;;;;;;4973286;28;20038;-73
2022/12/06 06:55:59;;;;;;;22.73;10.25;;;;;;;;;;4973090;28;20039;-65
2022/12/06 06:58:25;;;;;;;21.15;10.20;;;;;;;;;;4973312;28;20038;-68
2022/12/06 07:00:56;;;;;;;17.65;9.40;;;;;;;;;;4972982;28;20035;-70
2022/12/06 07:03:22;;;;;;;17.30;9.23;;;;;;;;;;4962273;28;20053;-62
2022/12/06 07:05:53;;;;;;;20.92;9.98;;;;;;;;;;4956200;28;20031;-69
2022/12/06 07:08:19;;;;;;;18.55;9.10;;;;;;;;;;4953898;29;20110;-68
2022/12/06 07:10:47;;;;;;;18.92;9.95;;;;;;;;;;4953754;29;20110;-70
2022/12/06 07:13:21;;;;;;;21.55;10.30;;;;;;;;;;4953208;29;20037;-57
2022/12/06 07:15:47;;;;;;;24.52;11.60;;;;;;;;;;4955672;28;20031;-58
2022/12/06 07:18:13;;;;;;;19.77;10.25;;;;;;;;;;4963976;28;20078;-67
2022/12/06 07:20:39;;;;;;;20.13;10.18;;;;;;;;;;4962523;28;20027;-58
2022/12/06 07:23:05;;;;;;;18.85;10.45;;;;;;;;;;4960923;28;20031;-68
2022/12/06 07:25:31;;;;;;;22.13;10.18;;;;;;;;;;4962479;28;20051;-58
2022/12/06 07:27:57;;;;;;;19.63;10.05;;;;;;;;;;4945452;28;20103;-58
2022/12/06 07:30:23;;;;;;;18.23;9.80;;;;;;;;;;4941909;29;20106;-58
2022/12/06 07:32:49;;;;;;;20.83;10.35;;;;;;;;;;4926609;29;20035;-61
2022/12/06 07:35:15;;;;;;;20.40;9.43;;;;;;;;;;4921810;29;20028;-61
2022/12/06 07:37:42;;;;;;;21.40;9.93;;;;;;;;;;4917359;29;20444;-57
2022/12/06 07:40:09;;;;;;;21.73;10.23;;;;;;;;;;4941436;29;20086;-57
2022/12/06 07:45:20;;;;;;;20.88;11.30;;;;;;;;;;4943688;29;20110;-57
2022/12/06 07:47:46;;;;;;;22.02;10.70;;;;;;;;;;4942639;29;20031;-57
2022/12/06 07:50:17;;;;;;;22.27;11.07;;;;;;;;;;4946882;29;20027;-58
2022/12/06 07:52:43;;;;;;;20.80;10.50;;;;;;;;;;4935813;29;20067;-58
2022/12/06 07:55:10;;;;;;;22.67;11.68;;;;;;;;;;4953092;29;20039;-58
2022/12/06 07:57:36;;;;;;;24.55;12.30;;;;;;;;;;4953199;29;20039;-58
2022/12/06 08:00:03;;;;;;;22.23;10.55;;;;;;;;;;4952889;29;20248;-60
2022/12/06 08:02:29;;;;;;;24.85;11.55;;;;;;;;;;4952964;29;20604;-58
2022/12/06 08:04:57;;;;;;;20.63;10.90;;;;;;;;;;4953086;29;20050;-57
2022/12/06 08:07:23;;;;;;;23.85;11.10;;;;;;;;;;4952800;29;20027;-57
2022/12/06 08:09:50;;;;;;;18.35;10.05;;;;;;;;;;4952344;29;20028;-68
2022/12/06 08:12:16;;;;;;;21.55;10.70;;;;;;;;;;4952475;29;20023;-58
2022/12/06 08:14:42;;;;;;;24.60;11.40;;;;;;;;;;4953086;29;20049;-57
2022/12/06 08:17:08;;;;;;;21.83;10.25;;;;;;;;;;4952601;29;20077;-58
2022/12/06 08:19:34;;;;;;;20.95;11.73;;;;;;;;;;4952508;29;20157;-57
2022/12/06 08:22:00;;;;;;;22.48;11.50;;;;;;;;;;4951969;29;20471;-57
2022/12/06 08:24:26;;;;;;;20.98;10.50;;;;;;;;;;4952403;29;20035;-61
2022/12/06 08:26:52;;;;;;;18.05;9.88;;;;;;;;;;4952410;28;20047;-62
2022/12/06 08:29:19;;;;;;;18.25;10.15;;;;;;;;;;4955934;28;20038;-57
2022/12/06 08:31:45;;;;;;;22.30;10.32;;;;;;;;;;4956569;29;20020;-58
2022/12/06 08:34:11;;;;;;;20.25;10.57;;;;;;;;;;4956479;29;20387;-56
2022/12/06 08:36:38;;;;;;;20.40;10.40;;;;;;;;;;4955975;29;20038;-57
2022/12/06 08:39:05;;;;;;;17.77;9.88;;;;;;;;;;4956449;29;20051;-59
2022/12/06 08:42:16;;;;;;;23.38;11.15;;;;;;;;;;4955752;29;20038;-57
2022/12/06 08:44:18;;;;;;;21.33;11.77;;;;;;;;;;4946079;29;20052;-58
2022/12/06 08:46:44;;;;;;;19.73;11.52;;;;;;;;;;4955869;29;20031;-57
2022/12/06 08:49:11;;;;;;;25.90;11.50;;;;;;;;;;4956133;29;20039;-57
2022/12/06 08:51:37;;;;;;;22.83;11.43;;;;;;;;;;4956160;29;20473;-61
2022/12/06 08:54:04;;;;;;;23.85;10.85;;;;;;;;;;4956129;29;20059;-58
2022/12/06 08:56:30;;;;;;;19.13;10.18;;;;;;;;;;4955956;29;20043;-57
2022/12/06 08:58:56;;;;;;;19.70;10.18;;;;;;;;;;4955741;29;20039;-68
2022/12/06 09:01:24;;;;;;;20.50;10.60;;;;;;;;;;4955959;29;20065;-70
2022/12/06 09:03:50;;;;;;;24.25;11.23;;;;;;;;;;4956172;29;20035;-68
2022/12/06 09:06:17;;;;;;;21.35;10.85;;;;;;;;;;4955790;29;20051;-58
2022/12/06 09:08:43;;;;;;;21.85;11.27;;;;;;;;;;4955306;29;20071;-64
2022/12/06 09:11:09;;;;;;;23.13;11.18;;;;;;;;;;4955525;29;20031;-59
2022/12/06 09:13:36;;;;;;;24.33;11.25;;;;;;;;;;4955807;29;20031;-58
2022/12/06 09:16:09;;;;;;;21.42;10.65;;;;;;;;;;4955715;29;20539;-63
2022/12/06 09:18:35;;;;;;;23.27;10.95;;;;;;;;;;4955055;29;20043;-61
2022/12/06 09:21:05;;;;;;;27.08;11.57;;;;;;;;;;4955508;29;20035;-59
2022/12/06 09:23:31;;;;;;;21.52;11.85;;;;;;;;;;4955937;29;20078;-59
2022/12/06 09:25:57;;;;;;;24.70;11.25;;;;;;;;;;4955458;29;20035;-62
2022/12/06 09:28:23;;;;;;;23.63;11.90;;;;;;;;;;4955250;29;20055;-59
2022/12/06 09:30:49;;;;;;;20.60;11.80;;;;;;;;;;4955322;29;20035;-62
2022/12/06 09:33:15;;;;;;;22.48;12.23;;;;;;;;;;4955660;29;20038;-59
2022/12/06 09:35:41;;;;;;;20.63;11.07;;;;;;;;;;4955307;29;20031;-58
2022/12/06 09:38:08;;;;;;;20.10;10.63;;;;;;;;;;4955456;29;20042;-58
2022/12/06 09:40:38;;;;;;;19.90;11.40;;;;;;;;;;4954262;28;20551;-59
2022/12/06 09:43:29;;;;;;;23.48;12.20;;;;;;;;;;4955329;29;20034;-59
2022/12/06 09:46:05;;;;;;;23.52;12.07;;;;;;;;;;4955290;29;20035;-60
2022/12/06 09:48:31;;;;;;;26.05;12.25;;;;;;;;;;4955106;29;20023;-57
2022/12/06 09:51:16;;;;;;;23.15;11.77;;;;;;;;;;4954778;29;20035;-58
2022/12/06 09:54:00;;;;;;;23.08;10.93;;;;;;;;;;4954945;29;20384;-59
2022/12/06 09:56:29;;;;;;;23.08;11.27;;;;;;;;;;4955229;29;20042;-56
2022/12/06 09:58:55;;;;;;;23.63;12.15;;;;;;;;;;4954861;29;20039;-59
2022/12/06 10:01:27;;;;;;;26.65;11.85;;;;;;;;;;4954806;29;20082;-57
2022/12/06 10:03:53;;;;;;;22.02;11.85;;;;;;;;;;4954748;29;20534;-57
2022/12/06 10:06:21;;;;;;;22.02;11.80;;;;;;;;;;4954499;29;20371;-57
2022/12/06 10:08:50;;;;;;;23.90;12.52;;;;;;;;;;4954793;29;20372;-58
2022/12/06 10:11:42;;;;;;;23.50;12.30;;;;;;;;;;4937200;29;20435;-57
2022/12/06 10:14:08;;;;;;;21.20;11.25;;;;;;;;;;4954753;29;20034;-57
2022/12/06 10:16:53;;;;;;;23.02;11.93;;;;;;;;;;4955005;29;20148;-57
2022/12/06 10:19:43;;;;;;;27.75;12.90;;;;;;;;;;4954655;29;20146;-57
2022/12/06 10:22:20;;;;;;;24.15;13.10;;;;;;;;;;4954657;29;20168;-59
2022/12/06 10:24:52;;;;;;;28.20;13.63;;;;;;;;;;4954573;29;20027;-57
2022/12/06 10:27:21;;;;;;;31.40;13.48;;;;;;;;;;4953388;29;20047;-57
2022/12/06 10:29:47;;;;;;;29.80;13.63;;;;;;;;;;4953512;29;20027;-60
2022/12/06 10:32:29;;;;;;;26.77;14.00;;;;;;;;;;4954504;29;20471;-57
2022/12/06 10:34:57;;;;;;;26.30;13.75;;;;;;;;;;4954134;29;20031;-59
2022/12/06 10:37:29;;;;;;;29.80;14.80;;;;;;;;;;4954555;29;20034;-59
2022/12/06 10:39:57;;;;;;;29.45;15.02;;;;;;;;;;4954201;29;20047;-59
2022/12/06 10:42:26;;;;;;;26.55;14.82;;;;;;;;;;4954314;29;20051;-61
2022/12/06 10:44:58;;;;;;;30.15;14.13;;;;;;;;;;4954228;29;20110;-57
2022/12/06 10:47:27;;;;;;;28.42;14.35;;;;;;;;;;4953984;29;20027;-71
2022/12/06 10:50:08;;;;;;;23.60;13.02;;;;;;;;;;4954208;29;20038;-59
2022/12/06 10:52:34;;;;;;;23.95;13.13;;;;;;;;;;4954206;28;20059;-59
2022/12/06 10:55:04;;;;;;;29.63;14.20;;;;;;;;;;4953979;29;20031;-64
2022/12/06 10:57:36;;;;;;;28.92;14.05;;;;;;;;;;4953413;29;20047;-61
2022/12/06 11:00:09;;;;;;;27.92;13.60;;;;;;;;;;4953731;29;20035;-59
2022/12/06 11:02:41;;;;;;;30.58;15.98;;;;;;;;;;4954100;29;20090;-58
2022/12/06 11:05:14;;;;;;;28.67;14.85;;;;;;;;;;4953832;29;20028;-58
2022/12/06 11:07:42;;;;;;;28.90;14.40;;;;;;;;;;4954125;29;20027;-58
2022/12/06 11:10:17;;;;;;;28.58;13.55;;;;;;;;;;4953385;29;20456;-58
2022/12/06 11:12:43;;;;;;;32.97;14.63;;;;;;;;;;4953304;29;20361;-57
2022/12/06 11:15:15;;;;;;;28.65;14.18;;;;;;;;;;4953578;29;20031;-58
2022/12/06 11:17:42;;;;;;;;;;;;;;;;;;4953763;29;20023;-58
2022/12/06 11:20:17;;;;;;;31.85;14.43;;;;;;;;;;4953638;29;20282;-57
2022/12/06 11:23:04;;;;;;;23.50;13.68;;;;;;;;;;4953621;29;20059;-58
2022/12/06 11:25:46;;;;;;;39.65;17.50;;;;;;;;;;4953261;29;20019;-58
2022/12/06 11:28:20;;;;;;;28.42;13.65;;;;;;;;;;4953000;29;20059;-58
2022/12/06 11:30:47;;;;;;;28.95;14.80;;;;;;;;;;4953172;29;20368;-58
2022/12/06 11:33:13;;;;;;;28.27;13.93;;;;;;;;;;4950785;29;20169;-58
2022/12/06 11:35:40;;;;;;;27.73;14.52;;;;;;;;;;4946938;29;20054;-58
2022/12/06 11:38:07;;;;;;;28.00;14.82;;;;;;;;;;4939909;29;20097;-66
2022/12/06 11:40:37;;;;;;;30.73;15.30;;;;;;;;;;4945866;29;20103;-58
2022/12/06 11:43:05;;;;;;;32.10;17.90;;;;;;;;;;4950297;29;20122;-57
2022/12/06 11:45:33;;;;;;;36.67;17.52;;;;;;;;;;4951702;29;20547;-63
2022/12/06 11:48:00;;;;;;;41.85;19.95;;;;;;;;;;4951403;29;20418;-57
2022/12/06 11:50:28;;;;;;;27.85;14.40;;;;;;;;;;4950368;29;20028;-59
2022/12/06 11:53:01;;;;;;;30.08;15.35;;;;;;;;;;4950285;29;20118;-57
2022/12/06 11:55:40;;;;;;;30.40;15.82;;;;;;;;;;4950241;29;20024;-59
2022/12/06 11:58:27;;;;;;;27.15;14.77;;;;;;;;;;4949890;29;20078;-70
2022/12/06 12:00:57;;;;;;;30.48;14.70;;;;;;;;;;4939791;29;20110;-63
2022/12/06 12:03:32;;;;;;;23.40;13.10;;;;;;;;;;4939899;28;20030;-57
2022/12/06 12:06:07;;;;;;;27.88;14.75;;;;;;;;;;4938502;29;20062;-56
2022/12/06 12:08:33;;;;;;;34.53;17.05;;;;;;;;;;4943165;29;20020;-56
2022/12/06 12:11:00;;;;;;;31.92;16.63;;;;;;;;;;4938101;29;20031;-57
2022/12/06 12:13:47;;;;;;;32.67;16.42;;;;;;;;;;4940794;29;20042;-58
2022/12/06 12:16:16;;;;;;;29.27;14.82;;;;;;;;;;4934839;29;20027;-59
2022/12/06 12:18:49;;;;;;;29.05;15.55;;;;;;;;;;4932958;29;20056;-58
2022/12/06 12:21:15;;;;;;;27.60;14.30;;;;;;;;;;4926426;29;20042;-57
2022/12/06 12:23:46;;;;;;;30.00;15.52;;;;;;;;;;4934771;29;20115;-66
2022/12/06 12:26:16;;;;;;;33.17;16.65;;;;;;;;;;4932740;29;20032;-57
2022/12/06 12:28:44;;;;;;;41.63;19.10;;;;;;;;;;4938630;29;20043;-57
2022/12/06 12:31:20;;;;;;;36.72;18.13;;;;;;;;;;4939743;29;20032;-58
2022/12/06 12:33:46;;;;;;;39.53;20.65;;;;;;;;;;4943043;29;20443;-59
2022/12/06 12:36:15;;;;;;;36.08;20.02;;;;;;;;;;4937194;29;20027;-58
2022/12/06 12:38:43;;;;;;;40.88;21.85;;;;;;;;;;4934439;29;20070;-58
2022/12/06 12:41:24;;;;;;;35.13;20.63;;;;;;;;;;4937001;29;20099;-60
2022/12/06 12:43:56;;;;;;;44.25;19.90;;;;;;;;;;4942479;29;20031;-69
2022/12/06 12:46:23;;;;;;;39.20;21.00;;;;;;;;;;4943221;29;20023;-58
2022/12/06 12:48:50;;;;;;;36.45;20.65;;;;;;;;;;4943461;29;20385;-59
2022/12/06 12:51:31;;;;;;;40.08;21.92;;;;;;;;;;4943088;29;20032;-61
2022/12/06 12:54:03;;;;;;;43.60;21.45;;;;;;;;;;4943971;29;20059;-68
2022/12/06 12:56:31;;;;;;;44.80;22.63;;;;;;;;;;4941762;29;20043;-68
2022/12/06 12:59:12;;;;;;;40.88;22.67;;;;;;;;;;4942248;29;20065;-62
2022/12/06 13:01:41;;;;;;;41.33;21.08;;;;;;;;;;4942278;29;20022;-60
2022/12/06 13:04:40;;;;;;;47.75;22.08;;;;;;;;;;4942417;29;20040;-59
2022/12/06 13:07:18;;;;;;;40.42;21.70;;;;;;;;;;4936981;29;20031;-59
2022/12/06 13:09:44;;;;;;;44.92;21.50;;;;;;;;;;4948947;29;20019;-67
2022/12/06 13:12:12;;;;;;;39.33;21.95;;;;;;;;;;4937187;28;20036;-59
2022/12/06 13:14:43;;;;;;;41.13;21.63;;;;;;;;;;4944054;28;20032;-59
2022/12/06 13:17:12;;;;;;;38.53;20.98;;;;;;;;;;4945088;29;20031;-59
2022/12/06 13:19:41;;;;;;;47.50;21.30;;;;;;;;;;4945636;29;20043;-59
2022/12/06 13:22:13;;;;;;;39.33;19.55;;;;;;;;;;4946398;29;20028;-59
2022/12/06 13:24:42;;;;;;;41.90;19.45;;;;;;;;;;4945453;29;20027;-59
2022/12/06 13:27:12;;;;;;;37.00;20.63;;;;;;;;;;4946137;29;20063;-59
2022/12/06 13:29:41;;;;;;;42.10;21.65;;;;;;;;;;4943976;29;20106;-59
2022/12/06 13:32:15;;;;;;;43.67;23.10;;;;;;;;;;4944263;29;20050;-59
2022/12/06 13:34:41;;;;;;;42.30;22.50;;;;;;;;;;4945826;29;20034;-60
2022/12/06 13:37:27;;;;;;;45.63;22.58;;;;;;;;;;4944670;29;20107;-59
2022/12/06 13:39:53;;;;;;;44.15;23.50;;;;;;;;;;4946667;29;20043;-59
2022/12/06 13:42:21;;;;;;;44.45;23.38;;;;;;;;;;4946067;29;20054;-59
2022/12/06 13:44:47;;;;;;;43.30;24.70;;;;;;;;;;4942021;29;20083;-59
2022/12/06 13:47:28;;;;;;;52.17;25.70;;;;;;;;;;4943571;29;20063;-60
2022/12/06 13:49:59;;;;;;;59.10;25.73;;;;;;;;;;4946895;29;20507;-59
2022/12/06 13:52:43;;;;;;;53.25;25.50;;;;;;;;;;4945384;29;20110;-62
2022/12/06 13:55:24;;;;;;;54.42;26.55;;;;;;;;;;4946632;29;20027;-60
2022/12/06 13:57:51;;;;;;;53.45;28.08;;;;;;;;;;4945862;29;20035;-61
2022/12/06 14:00:29;;;;;;;61.33;30.15;;;;;;;;;;4944839;29;20030;-61
2022/12/06 14:03:01;;;;;;;69.47;34.08;;;;;;;;;;4945140;29;20098;-59
2022/12/06 14:05:46;;;;;;;60.13;33.63;;;;;;;;;;4945110;29;20016;-60
2022/12/06 14:08:12;;;;;;;65.80;34.13;;;;;;;;;;4945596;29;20110;-58
2022/12/06 14:10:38;;;;;;;70.93;34.13;;;;;;;;;;4946850;28;20023;-59
2022/12/06 14:13:05;;;;;;;71.32;36.65;;;;;;;;;;4943379;29;20451;-60
2022/12/06 14:15:31;;;;;;;77.45;39.80;;;;;;;;;;4943264;29;20028;-59
2022/12/06 14:17:57;;;;;;;84.20;44.35;;;;;;;;;;4943365;29;20031;-59
2022/12/06 14:20:23;;;;;;;80.43;43.78;;;;;;;;;;4942539;29;20042;-65
2022/12/06 14:22:49;;;;;;;69.80;36.10;;;;;;;;;;4935437;29;20031;-59
2022/12/06 14:25:19;;;;;;;70.88;36.08;;;;;;;;;;4935114;29;20476;-63
2022/12/06 14:27:46;;;;;;;63.05;33.22;;;;;;;;;;4942832;29;20102;-60
2022/12/06 14:30:13;;;;;;;66.32;32.28;;;;;;;;;;4942982;29;20034;-58
2022/12/06 14:32:42;;;;;;;64.45;35.10;;;;;;;;;;4940658;29;20035;-58
2022/12/06 14:35:19;;;;;;;68.00;34.72;;;;;;;;;;4935622;29;20031;-64
2022/12/06 14:37:49;;;;;;;72.93;34.67;;;;;;;;;;4935112;29;20071;-57
2022/12/06 14:40:28;;;;;;;74.38;39.78;;;;;;;;;;4935584;29;20127;-57
2022/12/06 14:43:04;;;;;;;72.35;33.85;;;;;;;;;;4935458;29;20496;-60
2022/12/06 14:45:31;;;;;;;54.80;29.88;;;;;;;;;;4935171;29;20040;-68
2022/12/06 14:47:58;;;;;;;60.10;30.58;;;;;;;;;;4934987;29;20065;-65
2022/12/06 14:50:32;;;;;;;61.05;30.00;;;;;;;;;;4934592;29;20023;-58
2022/12/06 14:53:01;;;;;;;53.05;27.70;;;;;;;;;;4935115;29;20046;-60
2022/12/06 14:55:29;;;;;;;60.63;28.65;;;;;;;;;;4934579;29;20020;-57
2022/12/06 14:58:03;;;;;;;60.67;28.77;;;;;;;;;;4934095;29;20399;-58
2022/12/06 15:00:37;;;;;;;57.10;28.73;;;;;;;;;;4933953;29;20068;-58
2022/12/06 15:03:10;;;;;;;52.45;27.25;;;;;;;;;;4917292;29;20431;-57
2022/12/06 15:05:51;;;;;;;56.00;27.88;;;;;;;;;;4934521;29;20035;-60
2022/12/06 15:08:37;;;;;;;50.90;26.88;;;;;;;;;;4934457;29;20027;-73
2022/12/06 15:11:09;;;;;;;42.58;24.73;;;;;;;;;;4934394;29;20515;-57
2022/12/06 15:13:35;;;;;;;44.58;24.67;;;;;;;;;;4934717;29;20391;-58
2022/12/06 15:16:01;;;;;;;43.25;24.33;;;;;;;;;;4934970;29;20050;-69
2022/12/06 15:18:28;;;;;;;43.63;23.20;;;;;;;;;;4934703;29;20483;-59
2022/12/06 15:20:54;;;;;;;49.92;26.88;;;;;;;;;;4934782;29;20035;-70
2022/12/06 15:23:29;;;;;;;58.30;29.45;;;;;;;;;;4934605;29;20063;-58
2022/12/06 15:25:56;;;;;;;53.13;27.45;;;;;;;;;;4934546;29;20024;-69
2022/12/06 15:28:22;;;;;;;46.10;23.17;;;;;;;;;;4952995;28;20051;-70
2022/12/06 15:30:48;;;;;;;44.88;22.50;;;;;;;;;;4953379;29;20078;-66
2022/12/06 15:33:19;;;;;;;40.05;21.80;;;;;;;;;;4953524;29;20031;-61
2022/12/06 15:35:45;;;;;;;44.83;22.08;;;;;;;;;;4953604;29;20114;-68
2022/12/06 15:38:11;;;;;;;43.33;23.95;;;;;;;;;;4953058;28;20035;-66
2022/12/06 15:40:41;;;;;;;45.05;24.35;;;;;;;;;;4953596;29;20031;-67
2022/12/06 15:43:19;;;;;;;43.67;23.67;;;;;;;;;;4953764;29;20050;-58
2022/12/06 15:45:45;;;;;;;48.10;25.02;;;;;;;;;;4953472;29;20466;-59
2022/12/06 15:48:11;;;;;;;49.95;27.30;;;;;;;;;;4953260;29;20024;-58
2022/12/06 15:50:37;;;;;;;54.53;27.55;;;;;;;;;;4953149;29;20471;-57
2022/12/06 15:53:03;;;;;;;48.97;27.17;;;;;;;;;;4953026;29;20023;-69
2022/12/06 15:55:29;;;;;;;52.10;28.70;;;;;;;;;;4953269;29;20848;-64
2022/12/06 15:57:55;;;;;;;61.78;33.55;;;;;;;;;;4953017;29;20046;-58
2022/12/06 16:00:21;;;;;;;57.08;29.05;;;;;;;;;;4952982;29;20122;-58
2022/12/06 16:02:48;;;;;;;55.90;29.73;;;;;;;;;;4953128;29;20040;-60
2022/12/06 16:05:15;;;;;;;55.40;31.88;;;;;;;;;;4952769;29;20023;-61
2022/12/06 16:07:41;;;;;;;54.15;29.77;;;;;;;;;;4952705;29;20368;-56
2022/12/06 16:10:07;;;;;;;51.80;24.63;;;;;;;;;;4953123;29;20483;-58
2022/12/06 16:13:20;;;;;;;54.72;26.65;;;;;;;;;;4953033;29;20055;-57
2022/12/06 16:15:19;;;;;;;44.15;24.40;;;;;;;;;;4947080;29;20463;-58
2022/12/06 16:17:46;;;;;;;49.05;25.85;;;;;;;;;;4940874;29;20058;-60
2022/12/06 16:20:30;;;;;;;45.42;24.23;;;;;;;;;;4934552;29;20078;-57
2022/12/06 16:25:44;;;;;;;46.67;25.60;;;;;;;;;;4940504;29;20090;-56
2022/12/06 16:28:11;;;;;;;45.55;24.17;;;;;;;;;;4933231;29;20062;-56
2022/12/06 16:30:37;;;;;;;42.70;24.35;;;;;;;;;;4933218;29;20020;-56
2022/12/06 16:33:03;;;;;;;42.75;24.00;;;;;;;;;;4933382;29;20038;-57
2022/12/06 16:35:30;;;;;;;42.50;24.27;;;;;;;;;;4933823;29;20060;-60
2022/12/06 16:37:56;;;;;;;43.22;23.67;;;;;;;;;;4933250;29;20435;-59
2022/12/06 16:40:23;;;;;;;44.03;24.20;;;;;;;;;;4933424;29;20043;-59
2022/12/06 16:42:49;;;;;;;43.03;23.70;;;;;;;;;;4933680;29;20300;-59
2022/12/06 16:45:16;;;;;;;45.22;24.30;;;;;;;;;;4933505;29;20031;-58
2022/12/06 16:47:44;;;;;;;45.78;24.50;;;;;;;;;;4933741;29;20035;-58
2022/12/06 16:50:15;;;;;;;50.95;25.98;;;;;;;;;;4936246;29;20079;-57
2022/12/06 16:52:41;;;;;;;42.17;21.90;;;;;;;;;;4936873;29;20047;-66
2022/12/06 16:55:08;;;;;;;55.83;30.45;;;;;;;;;;4937074;29;20762;-57
2022/12/06 16:57:34;;;;;;;60.70;31.40;;;;;;;;;;4936741;29;20046;-59
2022/12/06 17:00:00;;;;;;;52.70;29.15;;;;;;;;;;4936602;29;20115;-58
2022/12/06 17:02:27;;;;;;;61.92;32.10;;;;;;;;;;4935933;29;20055;-59
2022/12/06 17:04:53;;;;;;;56.63;31.38;;;;;;;;;;4951649;29;20054;-60
2022/12/06 17:07:19;;;;;;;60.17;30.92;;;;;;;;;;4951212;29;20043;-59
2022/12/06 17:09:45;;;;;;;66.65;35.10;;;;;;;;;;4954977;29;20446;-59
2022/12/06 17:12:13;;;;;;;62.97;35.55;;;;;;;;;;4955792;29;20501;-59
2022/12/06 17:14:40;;;;;;;67.68;37.50;;;;;;;;;;4955388;29;20044;-60
2022/12/06 17:17:06;;;;;;;67.40;35.92;;;;;;;;;;4955383;29;20032;-59
2022/12/06 17:19:32;;;;;;;81.00;45.10;;;;;;;;;;4955110;29;20126;-58
2022/12/06 17:22:03;;;;;;;74.22;40.13;;;;;;;;;;4959082;28;20031;-58
2022/12/06 17:24:29;;;;;;;89.88;44.38;;;;;;;;;;4954922;29;20043;-62
2022/12/06 17:26:55;;;;;;;85.90;41.63;;;;;;;;;;4962132;28;20064;-58
2022/12/06 17:29:22;;;;;;;86.72;41.83;;;;;;;;;;4963409;28;20016;-58
2022/12/06 17:31:48;;;;;;;81.70;40.95;;;;;;;;;;4965600;28;20529;-59
2022/12/06 17:34:15;;;;;;;99.55;43.63;;;;;;;;;;4963248;28;20031;-60
2022/12/06 17:36:41;;;;;;;83.28;40.40;;;;;;;;;;4961065;28;20044;-59
2022/12/06 17:39:08;;;;;;;79.50;39.65;;;;;;;;;;4964280;28;20030;-60
2022/12/06 17:44:19;;;;;;;77.60;39.80;;;;;;;;;;4965495;28;20042;-68
2022/12/06 17:46:46;;;;;;;70.25;38.28;;;;;;;;;;4964173;28;20015;-60
2022/12/06 17:49:13;;;;;;;70.22;37.10;;;;;;;;;;4964065;28;20055;-59
2022/12/06 17:51:39;;;;;;;75.35;38.97;;;;;;;;;;4965363;28;20027;-70
2022/12/06 17:54:05;;;;;;;72.85;37.33;;;;;;;;;;4959984;28;20121;-59
2022/12/06 17:56:32;;;;;;;83.30;43.22;;;;;;;;;;4964476;28;20027;-58
2022/12/06 17:59:00;;;;;;;66.05;35.05;;;;;;;;;;4964924;28;20043;-58
2022/12/06 18:01:26;;;;;;;60.90;33.38;;;;;;;;;;4961770;28;20681;-58
2022/12/06 18:03:53;;;;;;;73.38;38.03;;;;;;;;;;4963935;28;20037;-60
2022/12/06 18:06:20;;;;;;;68.15;36.25;;;;;;;;;;4961602;28;20031;-60
2022/12/06 18:08:46;;;;;;;69.22;35.55;;;;;;;;;;4947603;29;20039;-59
2022/12/06 18:11:12;;;;;;;62.75;33.42;;;;;;;;;;4942157;29;20028;-59
2022/12/06 18:13:38;;;;;;;68.35;35.17;;;;;;;;;;4944485;29;20501;-71
2022/12/06 18:16:14;;;;;;;83.10;45.08;;;;;;;;;;4941535;29;20027;-59
2022/12/06 18:18:40;;;;;;;70.50;37.22;;;;;;;;;;4944851;29;20313;-64
2022/12/06 18:21:07;;;;;;;68.38;36.17;;;;;;;;;;4944212;29;20023;-58
2022/12/06 18:23:33;;;;;;;68.18;37.28;;;;;;;;;;4942339;29;20554;-59
2022/12/06 18:26:02;;;;;;;74.15;38.65;;;;;;;;;;4942154;29;20107;-64
2022/12/06 18:28:28;;;;;;;92.63;50.55;;;;;;;;;;4918463;29;20036;-59
2022/12/06 18:30:54;;;;;;;91.65;46.30;;;;;;;;;;4920931;29;20032;-59
2022/12/06 18:33:20;;;;;;;90.00;44.20;;;;;;;;;;4925426;29;20028;-60
2022/12/06 18:35:46;;;;;;;85.57;43.95;;;;;;;;;;4916464;29;20035;-65
2022/12/06 18:38:12;;;;;;;88.50;44.17;;;;;;;;;;4915986;29;20040;-67
2022/12/06 18:40:38;;;;;;;85.40;44.35;;;;;;;;;;4916517;29;20036;-60
2022/12/06 18:43:04;;;;;;;89.32;44.90;;;;;;;;;;4916187;29;20796;-64
2022/12/06 18:45:30;;;;;;;92.45;45.65;;;;;;;;;;4916274;29;20115;-68
2022/12/06 18:47:56;;;;;;;106.85;53.60;;;;;;;;;;4916595;29;20031;-56
2022/12/06 18:50:22;;;;;;;117.18;58.70;;;;;;;;;;4916299;29;20028;-56
2022/12/06 18:52:48;;;;;;;123.75;60.25;;;;;;;;;;4916328;29;20028;-58
2022/12/06 18:55:14;;;;;;;118.60;59.55;;;;;;;;;;4915938;29;20032;-57
2022/12/06 18:57:41;;;;;;;115.25;54.10;;;;;;;;;;4915599;29;20032;-57
2022/12/06 19:00:07;;;;;;;106.55;53.53;;;;;;;;;;4915782;29;20067;-58
2022/12/06 19:02:33;;;;;;;86.93;42.42;;;;;;;;;;4915625;29;20111;-58
2022/12/06 19:05:00;;;;;;;92.85;44.63;;;;;;;;;;4915439;29;20031;-59
2022/12/06 19:07:26;;;;;;;85.72;44.42;;;;;;;;;;4915194;29;20036;-59
2022/12/06 19:09:52;;;;;;;83.57;43.08;;;;;;;;;;4915340;29;20020;-58
2022/12/06 19:12:18;;;;;;;74.20;38.55;;;;;;;;;;4915504;29;20440;-65
2022/12/06 19:14:44;;;;;;;70.07;33.85;;;;;;;;;;4915232;29;20028;-64
2022/12/06 19:17:10;;;;;;;67.60;33.22;;;;;;;;;;4914940;29;20036;-59
2022/12/06 19:19:36;;;;;;;65.43;32.70;;;;;;;;;;4915075;29;20036;-58
2022/12/06 19:22:03;;;;;;;72.10;36.38;;;;;;;;;;4914554;29;20107;-58
2022/12/06 19:24:29;;;;;;;74.35;35.75;;;;;;;;;;4914378;29;20024;-58
2022/12/06 19:26:58;;;;;;;75.80;37.03;;;;;;;;;;4921511;29;20052;-58
2022/12/06 19:29:24;;;;;;;81.55;40.05;;;;;;;;;;4933931;29;20115;-58
2022/12/06 19:31:50;;;;;;;85.25;41.67;;;;;;;;;;4933739;29;20031;-59
2022/12/06 19:34:20;;;;;;;101.38;46.92;;;;;;;;;;4934124;29;20070;-58
2022/12/06 19:36:47;;;;;;;102.28;49.00;;;;;;;;;;4933772;29;20047;-59
2022/12/06 19:39:13;;;;;;;113.35;50.65;;;;;;;;;;4933766;29;20039;-59
2022/12/06 19:44:25;;;;;;;94.88;45.00;;;;;;;;;;4933732;29;20087;-59
2022/12/06 19:46:51;;;;;;;81.82;39.95;;;;;;;;;;4933402;29;20476;-59
2022/12/06 19:49:18;;;;;;;80.05;41.05;;;;;;;;;;4934747;29;20627;-58
2022/12/06 19:51:45;;;;;;;79.40;40.28;;;;;;;;;;4952985;29;20126;-59
2022/12/06 19:54:14;;;;;;;86.00;43.03;;;;;;;;;;4953118;29;20027;-59
2022/12/06 19:56:40;;;;;;;87.10;44.22;;;;;;;;;;4952991;29;20094;-59
2022/12/06 19:59:12;;;;;;;119.00;55.10;;;;;;;;;;4952504;29;20082;-59
2022/12/06 20:01:38;;;;;;;;;;;;;;;;;;4953322;29;20046;-60
2022/12/06 20:04:04;;;;;;;136.68;63.38;;;;;;;;;;4952560;29;20351;-59
2022/12/06 20:06:30;;;;;;;154.38;69.13;;;;;;;;;;4952325;29;20036;-59
2022/12/06 20:08:58;;;;;;;158.57;74.20;;;;;;;;;;4952808;29;20372;-61
2022/12/06 20:14:11;;;;;;;171.88;79.65;;;;;;;;;;4952621;29;20077;-60
2022/12/06 20:16:37;;;;;;;178.40;79.82;;;;;;;;;;4952087;29;20023;-60
2022/12/06 20:19:04;;;;;;;168.95;78.70;;;;;;;;;;4952684;29;20037;-59
2022/12/06 20:21:31;;;;;;;186.98;81.57;;;;;;;;;;4952828;29;20031;-59
2022/12/06 20:23:58;;;;;;;200.52;88.07;;;;;;;;;;4951639;28;20148;-75
2022/12/06 20:26:25;;;;;;;186.02;83.32;;;;;;;;;;4951849;28;20043;-59
2022/12/06 20:28:51;;;;;;;185.50;79.45;;;;;;;;;;4952212;29;20031;-58
2022/12/06 20:31:18;;;;;;;191.13;77.93;;;;;;;;;;4952206;29;20054;-60
2022/12/06 20:33:44;;;;;;;192.50;77.88;;;;;;;;;;4952435;29;20031;-59
2022/12/06 20:36:11;;;;;;;163.50;68.43;;;;;;;;;;4952829;29;20054;-59
2022/12/06 20:38:37;;;;;;;149.38;64.05;;;;;;;;;;4951993;29;20035;-59
2022/12/06 20:41:09;;;;;;;148.00;63.20;;;;;;;;;;4952819;29;20443;-59
2022/12/06 20:43:36;;;;;;;142.43;63.70;;;;;;;;;;4952161;29;20059;-59
2022/12/06 20:46:06;;;;;;;154.20;62.13;;;;;;;;;;4952531;29;20046;-59
2022/12/06 20:48:33;;;;;;;145.68;59.08;;;;;;;;;;4952117;29;20070;-59
2022/12/06 20:51:00;;;;;;;144.70;58.72;;;;;;;;;;4951911;29;20027;-58
2022/12/06 20:53:26;;;;;;;137.48;59.53;;;;;;;;;;4952241;29;20035;-67
2022/12/06 20:55:52;;;;;;;153.57;64.13;;;;;;;;;;4952111;29;20542;-59
2022/12/06 20:58:18;;;;;;;152.85;62.40;;;;;;;;;;4952495;29;20036;-58